Time;durP1;ratioP1;P1;durP2;ratioP2;P2;SDS_P1;SDS_P2;PMS_P1;PMS_P2;Temp;Humidity;BMP_temperature;BMP_pressure;BME280_temperature;BME280_humidity;BME280_pressure;Samples;Min_cycle;Max_cycle;Signal;HPM_P1;HPM_P2
2021/04/26 00:01:56;;;;;;;1.40;0.90;;;16.50;99.90;;;;;;5118005;28;20609;-90
2021/04/26 00:04:26;;;;;;;2.17;0.60;;;16.80;99.90;;;;;;5117220;28;20210;-90
2021/04/26 00:06:57;;;;;;;1.50;0.70;;;17.10;99.90;;;;;;5117456;28;20660;-89
2021/04/26 00:09:28;;;;;;;1.70;0.63;;;17.30;99.90;;;;;;5103836;28;20282;-89
2021/04/26 00:11:59;;;;;;;1.70;0.70;;;17.30;99.90;;;;;;5138128;28;20208;-89
2021/04/26 00:14:30;;;;;;;0.47;0.40;;;17.10;99.90;;;;;;5135832;28;20194;-90
2021/04/26 00:17:02;;;;;;;2.10;0.53;;;16.80;99.90;;;;;;5131444;28;20194;-88
2021/04/26 00:19:34;;;;;;;1.50;0.70;;;16.90;99.90;;;;;;5135927;28;20237;-88
2021/04/26 00:22:04;;;;;;;0.40;0.40;;;16.70;99.90;;;;;;5136746;28;20190;-88
2021/04/26 00:24:36;;;;;;;0.70;0.50;;;17.00;99.90;;;;;;5127202;28;20240;-89
2021/04/26 00:27:07;;;;;;;1.00;0.50;;;16.60;99.90;;;;;;5120992;28;20206;-87
2021/04/26 00:29:38;;;;;;;0.43;0.43;;;16.60;99.90;;;;;;5117604;28;20248;-88
2021/04/26 00:32:11;;;;;;;0.97;0.40;;;16.50;99.90;;;;;;5119100;28;20221;-87
2021/04/26 00:34:41;;;;;;;0.70;0.50;;;16.50;99.90;;;;;;5116872;28;20571;-87
2021/04/26 00:37:12;;;;;;;1.13;0.40;;;16.50;99.90;;;;;;5122059;28;20218;-87
2021/04/26 00:39:43;;;;;;;1.93;0.60;;;16.20;99.90;;;;;;5121565;28;20249;-87
2021/04/26 00:42:14;;;;;;;1.33;0.50;;;16.40;99.90;;;;;;5115928;28;20206;-87
2021/04/26 00:44:44;;;;;;;1.30;0.70;;;16.50;99.90;;;;;;5116345;28;20202;-92
2021/04/26 00:47:17;;;;;;;0.97;0.50;;;16.50;99.90;;;;;;5102066;28;20555;-89
2021/04/26 00:49:48;;;;;;;0.30;0.30;;;16.50;99.90;;;;;;5115863;28;20214;-90
2021/04/26 00:52:19;;;;;;;1.33;0.50;;;16.50;99.90;;;;;;5119347;28;20250;-89
2021/04/26 00:54:50;;;;;;;0.63;0.43;;;16.60;99.90;;;;;;5117500;28;20198;-90
2021/04/26 00:57:20;;;;;;;0.83;0.40;;;16.60;99.90;;;;;;5116084;28;20307;-90
2021/04/26 00:59:51;;;;;;;2.10;0.50;;;16.40;99.90;;;;;;5115578;28;20270;-90
2021/04/26 01:02:24;;;;;;;1.20;0.60;;;16.40;99.90;;;;;;5116017;28;20676;-90
2021/04/26 01:04:55;;;;;;;1.23;0.30;;;16.20;99.90;;;;;;5118823;28;20206;-90
2021/04/26 01:07:26;;;;;;;1.37;0.50;;;16.40;99.90;;;;;;5115403;28;20305;-90
2021/04/26 01:09:56;;;;;;;0.40;0.20;;;16.50;99.90;;;;;;5115629;28;20281;-90
2021/04/26 01:12:40;;;;;;;1.53;0.50;;;16.60;99.90;;;;;;5115666;28;20259;-90
2021/04/26 01:15:19;;;;;;;0.80;0.40;;;16.50;99.90;;;;;;5114748;28;20313;-90
2021/04/26 01:17:55;;;;;;;0.33;0.30;;;16.40;99.90;;;;;;5115238;28;20317;-90
2021/04/26 01:20:59;;;;;;;0.30;0.30;;;16.30;99.90;;;;;;5116459;28;20205;-90
2021/04/26 01:24:02;;;;;;;0.70;0.30;;;16.30;99.90;;;;;;5114997;28;20202;-89
2021/04/26 01:26:41;;;;;;;0.50;0.30;;;16.70;99.90;;;;;;5114368;28;20273;-89
2021/04/26 01:29:19;;;;;;;0.30;0.30;;;17.10;99.90;;;;;;5114770;28;20312;-89
2021/04/26 01:32:06;;;;;;;0.33;0.30;;;17.60;99.90;;;;;;5098111;28;20229;-89
2021/04/26 01:34:38;;;;;;;0.60;0.50;;;18.10;99.90;;;;;;5115860;28;20318;-89
2021/04/26 01:37:10;;;;;;;0.37;0.30;;;18.70;99.90;;;;;;5114945;28;20206;-90
2021/04/26 01:39:43;;;;;;;0.80;0.30;;;19.50;99.90;;;;;;5118074;28;20318;-92
2021/04/26 01:42:18;;;;;;;0.60;0.30;;;19.70;99.90;;;;;;5117865;28;20203;-91
2021/04/26 01:44:49;;;;;;;0.97;0.30;;;19.30;99.90;;;;;;5119054;28;20190;-91
2021/04/26 01:47:22;;;;;;;1.13;0.40;;;18.10;99.90;;;;;;5115669;28;20271;-91
2021/04/26 01:49:54;;;;;;;0.33;0.33;;;17.20;99.90;;;;;;5117722;28;20226;-92
2021/04/26 01:52:25;;;;;;;1.63;0.50;;;16.50;99.90;;;;;;5114910;28;20580;-92
2021/04/26 01:54:57;;;;;;;1.23;0.37;;;15.90;99.90;;;;;;5114444;28;20293;-91
2021/04/26 01:57:30;;;;;;;1.17;0.47;;;15.60;99.90;;;;;;5114706;28;20705;-92
2021/04/26 02:00:08;;;;;;;1.13;0.53;;;15.20;99.90;;;;;;5116057;28;20297;-91
2021/04/26 02:02:42;;;;;;;0.97;0.40;;;15.10;99.90;;;;;;5117234;28;20259;-92
2021/04/26 02:05:15;;;;;;;0.53;0.37;;;14.90;99.90;;;;;;5118160;28;20634;-91
2021/04/26 02:07:48;;;;;;;0.87;0.50;;;14.80;99.90;;;;;;5120213;28;20292;-91
2021/04/26 02:10:21;;;;;;;1.27;0.40;;;14.70;99.90;;;;;;5098765;28;20222;-92
2021/04/26 02:12:52;;;;;;;1.13;0.30;;;14.60;99.90;;;;;;5118993;28;20217;-92
2021/04/26 02:15:25;;;;;;;0.40;0.40;;;14.50;99.90;;;;;;5115534;28;20202;-92
2021/04/26 02:17:58;;;;;;;0.50;0.50;;;14.50;99.90;;;;;;5115724;28;20222;-92
2021/04/26 02:20:29;;;;;;;0.93;0.60;;;14.40;99.90;;;;;;5103036;28;20206;-90
2021/04/26 02:23:00;;;;;;;1.80;0.87;;;14.30;99.90;;;;;;5117276;28;20248;-91
2021/04/26 02:25:31;;;;;;;0.90;0.80;;;14.20;99.90;;;;;;5113258;28;20210;-91
2021/04/26 02:28:02;;;;;;;2.17;1.10;;;14.10;99.90;;;;;;5116444;28;20266;-91
2021/04/26 02:30:32;;;;;;;1.40;1.30;;;13.90;99.90;;;;;;5119186;28;20202;-90
2021/04/26 02:33:10;;;;;;;1.07;0.97;;;13.50;99.90;;;;;;5117196;28;20285;-91
2021/04/26 02:35:55;;;;;;;0.90;0.80;;;13.40;99.90;;;;;;5113729;28;20225;-91
2021/04/26 02:38:29;;;;;;;2.10;1.10;;;13.40;99.90;;;;;;5134710;28;20225;-90
2021/04/26 02:41:06;;;;;;;1.20;1.07;;;13.40;99.90;;;;;;5133927;28;20204;-91
2021/04/26 02:43:41;;;;;;;1.53;0.90;;;13.50;99.90;;;;;;5125745;28;20220;-91
2021/04/26 02:46:13;;;;;;;2.83;0.97;;;13.40;99.90;;;;;;5113646;28;20213;-91
2021/04/26 02:48:46;;;;;;;1.13;1.00;;;13.40;99.90;;;;;;5117064;28;20202;-92
2021/04/26 02:51:17;;;;;;;1.13;0.90;;;13.30;99.90;;;;;;5114166;28;20206;-91
2021/04/26 02:53:50;;;;;;;2.60;0.80;;;13.10;99.90;;;;;;5114639;28;20202;-91
2021/04/26 02:56:21;;;;;;;1.00;0.60;;;12.80;99.90;;;;;;5114764;28;20220;-91
2021/04/26 02:58:54;;;;;;;2.10;0.60;;;12.40;99.90;;;;;;5118515;28;20222;-91
2021/04/26 03:01:25;;;;;;;1.03;0.67;;;12.50;99.90;;;;;;5119624;28;20232;-91
2021/04/26 03:03:59;;;;;;;1.30;0.50;;;12.30;99.90;;;;;;5118021;28;20722;-91
2021/04/26 03:06:30;;;;;;;0.70;0.47;;;12.10;99.90;;;;;;5116775;28;20229;-91
2021/04/26 03:09:01;;;;;;;0.90;0.50;;;12.00;99.90;;;;;;5118116;28;20263;-92
2021/04/26 03:11:33;;;;;;;1.80;0.57;;;11.80;99.90;;;;;;5120739;28;20236;-91
2021/04/26 03:14:04;;;;;;;0.57;0.50;;;11.90;99.90;;;;;;5119592;28;20210;-91
2021/04/26 03:16:34;;;;;;;0.90;0.70;;;11.90;99.90;;;;;;5120121;28;20666;-90
2021/04/26 03:19:07;;;;;;;2.07;1.50;;;11.90;99.90;;;;;;5118630;28;20732;-90
2021/04/26 03:21:39;;;;;;;0.70;0.70;;;11.90;99.90;;;;;;5106733;28;20229;-90
2021/04/26 03:24:11;;;;;;;2.20;1.20;;;11.80;99.90;;;;;;5097366;28;20202;-90
2021/04/26 03:26:42;;;;;;;1.87;1.00;;;11.70;99.90;;;;;;5097028;28;20297;-90
2021/04/26 03:29:16;;;;;;;0.60;0.50;;;11.70;99.90;;;;;;5098624;28;20253;-90
2021/04/26 03:31:48;;;;;;;1.10;0.70;;;11.50;99.90;;;;;;5097124;28;20226;-90
2021/04/26 03:34:20;;;;;;;4.23;0.90;;;11.40;99.90;;;;;;5099289;28;20207;-90
2021/04/26 03:36:52;;;;;;;4.93;1.20;;;11.40;99.90;;;;;;5116480;28;20221;-90
2021/04/26 03:39:23;;;;;;;2.07;0.77;;;11.30;99.90;;;;;;5117027;28;20261;-90
2021/04/26 03:41:53;;;;;;;6.37;1.50;;;11.20;99.90;;;;;;5116545;28;20245;-90
2021/04/26 03:44:24;;;;;;;2.87;0.80;;;11.10;99.90;;;;;;5117437;28;20331;-90
2021/04/26 03:46:58;;;;;;;2.57;1.00;;;11.00;99.90;;;;;;5116696;28;20715;-91
2021/04/26 03:49:30;;;;;;;3.00;0.60;;;10.90;99.90;;;;;;5116798;28;20225;-91
2021/04/26 03:52:00;;;;;;;0.53;0.50;;;10.90;99.90;;;;;;5117016;28;20198;-90
2021/04/26 03:54:31;;;;;;;1.47;0.60;;;10.80;99.90;;;;;;5116781;28;20202;-90
2021/04/26 03:57:02;;;;;;;4.13;1.43;;;10.80;99.90;;;;;;5116354;28;20202;-90
2021/04/26 03:59:33;;;;;;;3.30;1.27;;;10.70;99.90;;;;;;5116546;28;20316;-90
2021/04/26 04:02:02;;;;;;;1.83;1.00;;;10.70;99.90;;;;;;5116861;28;20698;-90
2021/04/26 04:04:37;;;;;;;3.03;1.20;;;10.60;99.90;;;;;;5116702;28;20547;-90
2021/04/26 04:07:07;;;;;;;2.20;1.10;;;10.50;99.90;;;;;;5115992;28;20512;-90
2021/04/26 04:09:38;;;;;;;1.60;0.90;;;10.50;99.90;;;;;;5116370;28;20202;-90
2021/04/26 04:12:09;;;;;;;2.80;1.20;;;10.50;99.90;;;;;;5116947;28;20544;-90
2021/04/26 04:14:40;;;;;;;2.87;1.30;;;10.50;99.90;;;;;;5117085;28;20235;-91
2021/04/26 04:17:10;;;;;;;2.63;0.97;;;10.50;99.90;;;;;;5115884;28;20242;-89
2021/04/26 04:19:43;;;;;;;2.30;1.10;;;10.50;99.90;;;;;;5117099;28;20252;-90
2021/04/26 04:22:14;;;;;;;3.57;1.90;;;10.50;99.90;;;;;;5116654;28;20234;-89
2021/04/26 04:24:45;;;;;;;2.20;1.70;;;10.10;99.90;;;;;;5115932;28;20726;-89
2021/04/26 04:27:16;;;;;;;3.33;1.57;;;9.90;99.90;;;;;;5098811;28;20210;-89
2021/04/26 04:29:47;;;;;;;2.20;1.60;;;10.00;99.90;;;;;;5116888;28;20236;-89
2021/04/26 04:32:18;;;;;;;2.97;1.60;;;10.10;99.90;;;;;;5100576;28;20306;-90
2021/04/26 04:34:50;;;;;;;1.73;1.60;;;10.20;99.90;;;;;;5095235;28;20238;-90
2021/04/26 04:37:21;;;;;;;1.90;1.53;;;10.20;99.90;;;;;;5095557;28;20205;-89
2021/04/26 04:39:51;;;;;;;3.10;1.40;;;10.30;99.90;;;;;;5095454;28;20316;-89
2021/04/26 04:42:22;;;;;;;2.80;1.30;;;10.30;99.90;;;;;;5097641;28;20214;-89
2021/04/26 04:44:52;;;;;;;2.70;1.50;;;10.30;99.90;;;;;;5094461;28;20243;-89
2021/04/26 04:47:23;;;;;;;1.60;1.33;;;10.40;99.90;;;;;;5097110;28;20207;-89
2021/04/26 04:49:56;;;;;;;1.93;1.67;;;10.20;99.90;;;;;;5097017;28;20205;-90
2021/04/26 04:52:26;;;;;;;1.43;1.33;;;10.00;99.90;;;;;;5096976;28;20639;-90
2021/04/26 04:54:57;;;;;;;2.17;1.63;;;9.80;99.90;;;;;;5078400;28;20222;-90
2021/04/26 04:57:27;;;;;;;2.57;1.50;;;10.00;99.90;;;;;;5105711;28;20637;-90
2021/04/26 04:59:58;;;;;;;2.13;1.67;;;9.90;99.90;;;;;;5115931;28;20230;-89
2021/04/26 05:02:29;;;;;;;4.90;2.00;;;9.90;99.90;;;;;;5116419;28;20232;-90
2021/04/26 05:05:00;;;;;;;2.83;1.90;;;10.00;99.90;;;;;;5104971;28;20206;-90
2021/04/26 05:07:31;;;;;;;4.03;1.90;;;10.00;99.90;;;;;;5096655;28;20256;-89
2021/04/26 05:10:02;;;;;;;2.30;1.90;;;10.10;99.90;;;;;;5096220;28;20203;-90
2021/04/26 05:12:33;;;;;;;5.20;1.70;;;10.10;99.90;;;;;;5095892;28;20623;-89
2021/04/26 05:15:04;;;;;;;5.73;1.77;;;10.20;99.90;;;;;;5094543;28;20202;-90
2021/04/26 05:17:35;;;;;;;3.60;1.70;;;10.00;99.90;;;;;;5095097;28;20215;-89
2021/04/26 05:20:09;;;;;;;2.17;1.90;;;10.10;99.90;;;;;;5076438;28;20234;-89
2021/04/26 05:22:40;;;;;;;26.07;17.43;;;10.10;99.90;;;;;;5094297;28;20276;-89
2021/04/26 05:25:12;;;;;;;21.30;14.57;;;10.10;99.90;;;;;;5093884;28;20632;-89
2021/04/26 05:27:43;;;;;;;4.63;2.90;;;10.10;99.90;;;;;;5079527;28;20221;-89
2021/04/26 05:30:18;;;;;;;3.40;1.00;;;10.00;99.90;;;;;;5094151;28;20203;-88
2021/04/26 05:32:49;;;;;;;1.90;1.27;;;9.80;99.90;;;;;;5094644;28;20232;-89
2021/04/26 05:35:22;;;;;;;7.87;4.20;;;9.80;99.90;;;;;;5096865;28;20210;-88
2021/04/26 05:37:53;;;;;;;3.57;2.17;;;9.90;99.90;;;;;;5098133;28;20573;-89
2021/04/26 05:40:23;;;;;;;2.93;1.00;;;9.80;99.90;;;;;;5115991;28;20222;-89
2021/04/26 05:42:54;;;;;;;1.50;0.87;;;9.60;99.90;;;;;;5116234;28;20297;-89
2021/04/26 05:45:25;;;;;;;1.43;0.80;;;9.40;99.90;;;;;;5113991;28;20229;-89
2021/04/26 05:47:56;;;;;;;2.60;1.10;;;9.40;99.90;;;;;;5114960;28;20251;-90
2021/04/26 05:50:28;;;;;;;1.50;1.03;;;9.30;99.90;;;;;;5115241;28;20245;-89
2021/04/26 05:52:58;;;;;;;1.43;1.10;;;9.30;99.90;;;;;;5114399;28;20198;-90
2021/04/26 05:55:28;;;;;;;1.20;1.10;;;9.30;99.90;;;;;;5114406;28;20206;-90
2021/04/26 05:58:00;;;;;;;1.63;1.07;;;9.30;99.90;;;;;;5116160;28;20205;-89
2021/04/26 06:00:30;;;;;;;1.67;1.07;;;9.30;99.90;;;;;;5110187;28;20230;-89
2021/04/26 06:03:02;;;;;;;2.63;1.10;;;9.20;99.90;;;;;;5124965;28;20233;-89
2021/04/26 06:05:34;;;;;;;2.03;1.30;;;9.30;99.90;;;;;;5115963;28;20279;-90
2021/04/26 06:08:06;;;;;;;1.33;1.20;;;9.30;99.90;;;;;;5115498;28;20323;-90
2021/04/26 06:10:36;;;;;;;1.93;0.80;;;9.30;99.90;;;;;;5118496;28;20239;-90
2021/04/26 06:13:06;;;;;;;0.90;0.90;;;9.30;99.90;;;;;;5115779;28;20241;-90
2021/04/26 06:15:37;;;;;;;1.67;0.80;;;9.20;99.90;;;;;;5095372;28;20259;-90
2021/04/26 06:18:10;;;;;;;1.70;0.83;;;9.20;99.90;;;;;;5115249;28;20243;-90
2021/04/26 06:20:44;;;;;;;2.03;0.83;;;9.30;99.90;;;;;;5114925;28;20568;-89
2021/04/26 06:23:15;;;;;;;1.87;0.90;;;9.30;99.90;;;;;;5114710;28;20202;-90
2021/04/26 06:25:46;;;;;;;1.40;1.30;;;9.30;99.90;;;;;;5113247;28;20226;-89
2021/04/26 06:28:17;;;;;;;1.00;0.90;;;9.30;99.90;;;;;;5115926;28;20210;-89
2021/04/26 06:30:49;;;;;;;1.90;1.03;;;9.30;99.90;;;;;;5113871;28;20209;-89
2021/04/26 06:33:20;;;;;;;0.90;0.73;;;9.40;99.90;;;;;;5099131;28;20634;-90
2021/04/26 06:35:54;;;;;;;1.10;1.00;;;9.60;99.90;;;;;;5117424;28;20206;-89
2021/04/26 06:38:24;;;;;;;0.80;0.70;;;9.60;99.90;;;;;;5118392;28;20222;-89
2021/04/26 06:40:55;;;;;;;1.40;1.10;;;9.40;99.90;;;;;;5100615;28;20226;-89
2021/04/26 06:43:25;;;;;;;0.90;0.80;;;9.40;99.90;;;;;;5118792;28;20218;-90
2021/04/26 06:45:56;;;;;;;1.37;0.83;;;9.40;99.90;;;;;;5117195;28;20232;-90
2021/04/26 06:48:27;;;;;;;1.00;0.80;;;9.40;99.90;;;;;;5100019;28;20214;-91
2021/04/26 06:50:59;;;;;;;0.87;0.77;;;9.40;99.90;;;;;;5117975;28;20226;-90
2021/04/26 06:53:30;;;;;;;0.63;0.63;;;9.50;99.90;;;;;;5118046;28;20210;-90
2021/04/26 06:56:01;;;;;;;1.73;0.80;;;9.50;99.90;;;;;;5100127;28;20244;-91
2021/04/26 06:58:32;;;;;;;1.40;0.80;;;9.50;99.90;;;;;;5120745;28;20234;-90
2021/04/26 07:01:02;;;;;;;0.60;0.60;;;9.50;99.90;;;;;;5118248;28;20696;-91
2021/04/26 07:03:33;;;;;;;1.13;0.87;;;9.50;99.90;;;;;;5100872;28;20206;-90
2021/04/26 07:06:06;;;;;;;2.00;0.77;;;9.60;99.90;;;;;;5119964;28;20199;-90
2021/04/26 07:08:36;;;;;;;0.97;0.87;;;9.60;99.90;;;;;;5117717;28;20214;-90
2021/04/26 07:11:07;;;;;;;1.57;0.90;;;9.60;99.90;;;;;;5117808;28;20205;-90
2021/04/26 07:13:38;;;;;;;0.60;0.60;;;9.70;99.90;;;;;;5117922;28;20259;-90
2021/04/26 07:16:09;;;;;;;1.67;0.73;;;9.70;99.90;;;;;;5084082;28;20226;-90
2021/04/26 07:18:41;;;;;;;1.43;0.80;;;9.70;99.90;;;;;;5129276;28;20214;-90
2021/04/26 07:21:14;;;;;;;0.70;0.70;;;9.70;99.90;;;;;;5125183;28;20249;-90
2021/04/26 07:23:45;;;;;;;1.53;0.97;;;9.70;99.90;;;;;;5117244;28;20234;-90
2021/04/26 07:26:16;;;;;;;1.57;0.90;;;9.70;99.90;;;;;;5080251;28;20224;-89
2021/04/26 07:28:47;;;;;;;1.00;0.80;;;9.70;99.90;;;;;;5097427;28;20229;-89
2021/04/26 07:31:18;;;;;;;0.80;0.60;;;9.70;99.90;;;;;;5096535;28;20250;-90
2021/04/26 07:33:49;;;;;;;1.23;0.73;;;9.70;99.90;;;;;;5096969;28;20211;-90
2021/04/26 07:36:22;;;;;;;0.90;0.80;;;9.80;99.90;;;;;;5113708;28;20210;-90
2021/04/26 07:38:53;;;;;;;1.07;0.80;;;9.70;99.90;;;;;;5120028;28;20222;-90
2021/04/26 07:41:24;;;;;;;1.23;0.80;;;9.70;99.90;;;;;;5117242;28;20238;-90
2021/04/26 07:43:55;;;;;;;1.77;1.03;;;9.70;99.90;;;;;;5118910;28;20725;-90
2021/04/26 07:46:25;;;;;;;1.00;0.80;;;9.70;99.90;;;;;;5117439;28;20233;-92
2021/04/26 07:48:56;;;;;;;1.37;0.80;;;9.70;99.90;;;;;;5099377;28;20211;-90
2021/04/26 07:51:28;;;;;;;1.17;1.07;;;9.70;99.90;;;;;;5081090;28;20203;-90
2021/04/26 07:53:59;;;;;;;2.40;1.33;;;9.60;99.90;;;;;;5096424;28;20284;-91
2021/04/26 07:56:29;;;;;;;1.03;0.93;;;9.60;99.90;;;;;;5095920;28;20238;-90
2021/04/26 07:59:00;;;;;;;1.00;0.90;;;9.70;99.90;;;;;;5096906;28;20305;-90
2021/04/26 08:01:31;;;;;;;1.07;0.90;;;9.70;99.90;;;;;;5096323;28;20612;-91
2021/04/26 08:04:02;;;;;;;1.30;0.97;;;9.70;99.90;;;;;;5097025;28;20211;-90
2021/04/26 08:06:34;;;;;;;1.60;0.90;;;9.70;99.90;;;;;;5095383;28;20258;-90
2021/04/26 08:09:06;;;;;;;4.57;0.80;;;9.80;99.90;;;;;;5096149;28;20207;-91
2021/04/26 08:11:37;;;;;;;2.20;1.03;;;9.70;99.90;;;;;;5096206;28;20207;-90
2021/04/26 08:14:07;;;;;;;0.90;0.90;;;9.70;99.90;;;;;;5096205;28;20576;-90
2021/04/26 08:16:39;;;;;;;1.23;1.00;;;9.70;99.90;;;;;;5095580;28;20214;-90
2021/04/26 08:19:10;;;;;;;1.10;1.00;;;9.70;99.90;;;;;;5096076;28;20226;-89
2021/04/26 08:21:42;;;;;;;1.20;1.10;;;9.70;99.90;;;;;;5102708;28;20218;-90
2021/04/26 08:24:13;;;;;;;2.80;1.10;;;9.60;99.90;;;;;;5116068;28;20248;-90
2021/04/26 08:26:44;;;;;;;3.63;1.30;;;9.60;99.90;;;;;;5115552;28;20206;-90
2021/04/26 08:29:15;;;;;;;2.30;1.40;;;9.40;99.90;;;;;;5116364;28;20266;-89
2021/04/26 08:31:45;;;;;;;1.50;1.40;;;9.30;99.90;;;;;;5116369;28;20226;-90
2021/04/26 08:34:16;;;;;;;3.83;1.83;;;9.20;99.90;;;;;;5115829;28;20210;-89
2021/04/26 08:36:49;;;;;;;3.33;1.90;;;9.20;99.90;;;;;;5115200;28;20213;-90
2021/04/26 08:39:19;;;;;;;2.47;1.40;;;9.10;99.90;;;;;;5098132;28;20398;-89
2021/04/26 08:41:50;;;;;;;2.00;1.60;;;9.10;99.90;;;;;;5115209;28;20286;-89
2021/04/26 08:44:21;;;;;;;1.70;1.50;;;9.10;99.90;;;;;;5115778;28;20203;-90
2021/04/26 08:46:52;;;;;;;2.43;1.80;;;9.10;99.90;;;;;;5114799;28;20226;-90
2021/04/26 08:49:23;;;;;;;2.43;1.83;;;9.00;99.90;;;;;;5115894;28;20279;-90
2021/04/26 08:51:55;;;;;;;2.30;1.70;;;9.00;99.90;;;;;;5115708;28;20236;-90
2021/04/26 08:54:26;;;;;;;3.27;2.00;;;9.00;99.90;;;;;;5115446;28;20232;-90
2021/04/26 08:56:56;;;;;;;2.43;1.87;;;9.10;99.90;;;;;;5096167;28;20201;-90
2021/04/26 08:59:26;;;;;;;2.17;1.80;;;9.10;99.90;;;;;;5115587;28;20230;-90
2021/04/26 09:02:07;;;;;;;2.90;1.70;;;9.00;99.90;;;;;;5115800;28;20233;-90
2021/04/26 09:04:50;;;;;;;2.53;1.70;;;9.00;99.90;;;;;;5115507;28;20224;-90
2021/04/26 09:07:23;;;;;;;4.83;1.70;;;9.00;99.90;;;;;;5115693;28;20209;-90
2021/04/26 09:09:55;;;;;;;3.43;1.93;;;8.90;99.90;;;;;;5117860;28;20271;-90
2021/04/26 09:12:28;;;;;;;1.50;1.40;;;8.80;99.90;;;;;;5115386;28;20267;-91
2021/04/26 09:15:00;;;;;;;2.43;1.17;;;8.80;99.90;;;;;;5097195;28;20210;-90
2021/04/26 09:17:36;;;;;;;2.80;1.50;;;8.70;99.90;;;;;;5115408;28;20312;-89
2021/04/26 09:20:23;;;;;;;2.10;1.40;;;8.70;99.90;;;;;;5111641;28;20237;-89
2021/04/26 09:22:57;;;;;;;4.00;1.40;;;8.70;99.90;;;;;;5095370;28;20225;-89
2021/04/26 09:25:34;;;;;;;2.83;1.20;;;8.60;99.90;;;;;;5096192;28;20206;-89
2021/04/26 09:28:07;;;;;;;1.90;1.03;;;8.60;99.90;;;;;;5094925;28;20199;-89
2021/04/26 09:30:54;;;;;;;1.80;1.10;;;8.60;99.90;;;;;;5096837;28;20210;-89
2021/04/26 09:33:34;;;;;;;1.40;1.30;;;8.60;99.90;;;;;;5094966;28;20249;-90
2021/04/26 09:36:18;;;;;;;1.03;0.87;;;8.60;99.90;;;;;;5109546;28;20250;-89
2021/04/26 09:38:51;;;;;;;2.57;1.07;;;8.60;99.90;;;;;;5130602;28;20721;-89
2021/04/26 09:41:27;;;;;;;3.23;1.40;;;8.60;99.90;;;;;;5131078;28;20658;-90
2021/04/26 09:44:11;;;;;;;2.30;1.70;;;8.60;99.90;;;;;;5119954;28;20634;-89
2021/04/26 09:46:44;;;;;;;1.83;1.20;;;8.50;99.90;;;;;;5116069;28;20660;-91
2021/04/26 09:49:16;;;;;;;1.60;1.40;;;8.60;99.90;;;;;;5117337;28;20656;-91
2021/04/26 09:51:54;;;;;;;2.20;1.40;;;8.60;99.90;;;;;;5114532;28;20232;-91
2021/04/26 09:54:40;;;;;;;1.90;1.30;;;8.60;99.90;;;;;;5115217;28;20258;-91
2021/04/26 09:57:11;;;;;;;3.03;1.10;;;8.70;99.90;;;;;;5108529;28;20571;-90
2021/04/26 09:59:43;;;;;;;1.30;1.00;;;8.80;99.90;;;;;;5094262;28;20252;-91
2021/04/26 10:02:15;;;;;;;1.60;1.27;;;8.80;99.90;;;;;;5094403;28;20252;-91
2021/04/26 10:04:47;;;;;;;1.10;0.83;;;8.80;99.90;;;;;;5093502;28;20731;-93
2021/04/26 10:07:19;;;;;;;4.83;1.27;;;8.90;99.90;;;;;;5093752;28;20210;-90
2021/04/26 10:09:52;;;;;;;2.47;1.10;;;9.00;99.90;;;;;;5094649;28;20207;-90
2021/04/26 10:12:23;;;;;;;4.10;1.27;;;8.90;99.90;;;;;;5076595;28;20669;-90
2021/04/26 10:14:54;;;;;;;1.30;1.03;;;8.90;99.90;;;;;;5093028;28;20203;-90
2021/04/26 10:17:41;;;;;;;0.80;0.80;;;8.80;99.90;;;;;;5078939;28;20223;-90
2021/04/26 10:20:16;;;;;;;1.23;1.00;;;9.00;99.90;;;;;;5113445;28;20222;-89
2021/04/26 10:22:48;;;;;;;1.10;1.00;;;9.00;99.90;;;;;;5114054;28;20202;-90
2021/04/26 10:25:38;;;;;;;2.20;1.07;;;8.90;99.90;;;;;;5112479;28;20214;-90
2021/04/26 10:28:31;;;;;;;0.97;0.90;;;8.90;99.90;;;;;;5113831;28;20681;-89
2021/04/26 10:31:11;;;;;;;1.30;0.90;;;8.80;99.90;;;;;;5113313;28;20293;-90
2021/04/26 10:34:07;;;;;;;1.40;0.90;;;8.80;99.90;;;;;;5095793;28;20270;-89
2021/04/26 10:36:47;;;;;;;1.93;1.10;;;8.60;99.90;;;;;;5095680;28;20198;-89
2021/04/26 10:39:20;;;;;;;2.30;1.00;;;8.70;99.90;;;;;;5113778;28;20344;-89
2021/04/26 10:42:07;;;;;;;1.23;0.90;;;8.60;99.90;;;;;;5114213;28;20216;-89
2021/04/26 10:44:53;;;;;;;1.20;1.10;;;8.60;99.90;;;;;;5113688;28;20209;-89
2021/04/26 10:47:34;;;;;;;2.00;1.00;;;8.50;99.90;;;;;;5114448;28;20292;-90
2021/04/26 10:50:38;;;;;;;2.10;0.90;;;8.50;99.90;;;;;;5113866;28;20206;-91
2021/04/26 10:53:10;;;;;;;2.30;0.70;;;8.50;99.90;;;;;;5114320;28;20205;-90
2021/04/26 10:56:01;;;;;;;1.00;0.90;;;8.50;99.90;;;;;;5113018;28;20205;-90
2021/04/26 10:58:39;;;;;;;1.97;0.93;;;8.40;99.90;;;;;;5114048;28;20206;-90
2021/04/26 11:01:17;;;;;;;1.00;0.90;;;8.40;99.90;;;;;;5114064;28;20258;-90
2021/04/26 11:03:48;;;;;;;1.23;1.00;;;8.40;99.90;;;;;;5114174;28;20212;-91
2021/04/26 11:06:35;;;;;;;3.13;1.47;;;8.40;99.90;;;;;;5112561;28;20565;-90
2021/04/26 11:09:18;;;;;;;0.80;0.80;;;8.40;99.90;;;;;;5113633;28;20226;-90
2021/04/26 11:12:05;;;;;;;1.30;0.90;;;8.40;99.90;;;;;;5113387;28;20305;-90
2021/04/26 11:14:37;;;;;;;0.80;0.80;;;8.40;99.90;;;;;;5114197;28;20244;-90
2021/04/26 11:17:09;;;;;;;1.10;1.00;;;8.50;99.90;;;;;;5095155;28;20616;-89
2021/04/26 11:20:08;;;;;;;1.07;0.90;;;8.40;99.90;;;;;;5114984;28;20236;-89
2021/04/26 11:22:40;;;;;;;1.17;1.07;;;8.40;99.90;;;;;;5118173;28;20275;-90
2021/04/26 11:25:31;;;;;;;1.80;0.70;;;8.30;99.90;;;;;;5099840;28;20268;-89
2021/04/26 11:28:02;;;;;;;1.43;0.87;;;8.30;99.90;;;;;;5105643;28;20228;-89
2021/04/26 11:30:37;;;;;;;2.27;0.70;;;8.40;99.90;;;;;;5121891;28;20586;-89
2021/04/26 11:33:20;;;;;;;1.23;0.70;;;8.40;99.90;;;;;;5119345;28;20662;-89
2021/04/26 11:36:20;;;;;;;0.93;0.63;;;8.30;99.90;;;;;;5118337;28;20201;-89
2021/04/26 11:38:51;;;;;;;1.50;0.77;;;8.30;99.90;;;;;;5118132;28;20257;-89
2021/04/26 11:41:22;;;;;;;1.57;0.70;;;8.30;99.90;;;;;;5118363;28;20667;-89
2021/04/26 11:43:54;;;;;;;0.93;0.60;;;8.20;99.90;;;;;;5118156;28;20565;-90
2021/04/26 11:46:35;;;;;;;0.57;0.57;;;8.20;99.90;;;;;;5117748;28;20205;-90
2021/04/26 11:49:18;;;;;;;0.93;0.63;;;8.20;99.90;;;;;;5117092;28;20210;-90
2021/04/26 11:51:52;;;;;;;0.60;0.60;;;8.30;99.90;;;;;;5117829;28;20593;-90
2021/04/26 11:54:27;;;;;;;1.77;0.80;;;8.30;99.90;;;;;;5131068;28;20206;-90
2021/04/26 11:57:02;;;;;;;0.83;0.60;;;8.30;99.90;;;;;;5135050;28;20209;-90
2021/04/26 11:59:32;;;;;;;1.07;0.70;;;8.40;99.90;;;;;;5130248;28;20236;-91
2021/04/26 12:02:04;;;;;;;0.90;0.80;;;8.40;99.90;;;;;;5117305;28;20604;-90
2021/04/26 12:04:39;;;;;;;1.53;0.80;;;8.40;99.90;;;;;;5117121;28;20206;-90
2021/04/26 12:07:12;;;;;;;1.50;0.77;;;8.40;99.90;;;;;;5116816;28;20205;-90
2021/04/26 12:09:43;;;;;;;0.70;0.70;;;8.40;99.90;;;;;;5116601;28;20239;-91
2021/04/26 12:12:21;;;;;;;0.83;0.70;;;8.40;99.90;;;;;;5116984;28;20608;-90
2021/04/26 12:14:55;;;;;;;1.77;0.80;;;8.40;99.90;;;;;;5116056;28;20206;-90
2021/04/26 12:17:28;;;;;;;2.33;0.80;;;8.30;99.90;;;;;;5083016;28;20316;-89
2021/04/26 12:20:00;;;;;;;1.10;1.00;;;8.20;99.90;;;;;;5116392;28;20446;-90
2021/04/26 12:22:36;;;;;;;1.77;0.87;;;8.20;99.90;;;;;;5116462;28;20722;-89
2021/04/26 12:25:08;;;;;;;1.57;0.83;;;8.10;99.90;;;;;;5115788;28;20208;-90
2021/04/26 12:27:40;;;;;;;1.33;0.80;;;8.10;99.90;;;;;;5116566;28;20235;-90
2021/04/26 12:30:16;;;;;;;1.30;0.77;;;8.00;99.90;;;;;;5115813;28;20224;-89
2021/04/26 12:32:53;;;;;;;1.23;1.13;;;8.10;99.90;;;;;;5116032;28;20261;-90
2021/04/26 12:35:27;;;;;;;0.90;0.90;;;8.00;99.90;;;;;;5115738;28;20206;-89
2021/04/26 12:38:01;;;;;;;1.27;1.10;;;8.00;99.90;;;;;;5115936;28;20258;-90
2021/04/26 12:40:35;;;;;;;2.53;1.07;;;8.00;99.90;;;;;;5116103;28;20646;-90
2021/04/26 12:43:07;;;;;;;3.27;1.07;;;8.10;99.90;;;;;;5098370;28;20205;-90
2021/04/26 12:45:39;;;;;;;0.90;0.90;;;8.00;99.90;;;;;;5115155;28;20205;-89
2021/04/26 12:48:14;;;;;;;0.97;0.90;;;8.00;99.90;;;;;;5116179;28;20211;-91
2021/04/26 12:50:46;;;;;;;0.93;0.93;;;8.10;99.90;;;;;;5116175;28;20247;-90
2021/04/26 12:53:19;;;;;;;0.90;0.90;;;8.10;99.90;;;;;;5116122;28;20711;-90
2021/04/26 12:55:52;;;;;;;1.20;1.10;;;8.20;99.90;;;;;;5115625;28;20256;-90
2021/04/26 12:58:29;;;;;;;1.90;0.90;;;8.10;99.90;;;;;;5116085;28;20202;-91
2021/04/26 13:01:00;;;;;;;1.40;1.00;;;8.10;99.90;;;;;;5117461;28;20320;-88
2021/04/26 13:03:37;;;;;;;1.73;1.10;;;8.10;99.90;;;;;;5115721;28;20264;-90
2021/04/26 13:06:11;;;;;;;1.63;1.10;;;8.10;99.90;;;;;;5115353;28;20621;-90
2021/04/26 13:08:43;;;;;;;1.27;1.10;;;8.10;99.90;;;;;;5116096;28;20214;-90
2021/04/26 13:11:28;;;;;;;1.10;0.90;;;8.10;99.90;;;;;;5116269;28;20643;-91
2021/04/26 13:14:00;;;;;;;1.17;1.00;;;8.10;99.90;;;;;;5097434;28;20201;-90
2021/04/26 13:16:32;;;;;;;1.07;0.97;;;8.20;99.90;;;;;;5097165;28;20632;-89
2021/04/26 13:19:06;;;;;;;1.20;1.10;;;8.20;99.90;;;;;;5115240;28;20216;-90
2021/04/26 13:21:39;;;;;;;3.57;1.10;;;8.20;99.90;;;;;;5115233;28;20236;-89
2021/04/26 13:24:14;;;;;;;0.97;0.80;;;8.10;99.90;;;;;;5115340;28;20221;-91
2021/04/26 13:26:46;;;;;;;1.47;1.00;;;8.20;99.90;;;;;;5114758;28;20274;-90